Forside
METAR-TAF:

METAR-TAF

Lufthavne :

Inverness, Skotland

Breddekreds: 57-32N, længdekreds: 004-03W, højde: 9 m

Aktuelle vejr

Denne rapport blev lavet for 16 minutter siden, kl. 01:50 UTC
Vind 4 kt fra sydvest
Temperatur 7°C
Fugtighed 87%
Tryk 1029 hPa
Sigt 10 km eller mere

METAR: EGPE 250150Z AUTO 23004KT 9999 NCD 07/05 Q1029

Tid: 03:06 (02:06 UTC)

Vejrudsigter

Denne rapport blev lavet for 6 timer og 7 minutter siden, kl. 19:59 UTC
Foreløbig gælder fra 24 på 21 UTC til 25 på 06 UTC
Vind 9 kt fra sydvest
Sigt 10 km eller mere
Spredte skyer i en højde af 3500 ft
Sandsynlighed 30% :
Midlertidig
fra 24 på 21 UTC til 25 på 06 UTC
Vind 15 kt fra sydvest med vindstød på up til 25 kt

TAF: EGPE 241959Z 2421/2506 22009KT 9999 SCT035 PROB30 TEMPO 2421/2506 23015G25KT

Vejrobservationer og prognoser fra mere end 4000 lufthavne (METAR og TAF).

De gule og røde prikker repræsenterer de meteorologiske stationer.

Flyt musen over at se navnet på stationen.

Så klik over at se vejr observationer og prognoser.

At skifte det kort: Klik på de grønne knapper med et sort kors for at zoome ind; på den grønne knap med en bindestreg for at zoome ud; eller på de grønne pile for tilstødende kort.


METAR-TAF: